Time;durP1;ratioP1;P1;durP2;ratioP2;P2;SDS_P1;SDS_P2;PMS_P1;PMS_P2;Temp;Humidity;BMP_temperature;BMP_pressure;BME280_temperature;BME280_humidity;BME280_pressure;Samples;Min_cycle;Max_cycle;Signal;HPM_P1;HPM_P2
2022/07/11 00:01:22;;;;;;;1.23;0.60;;;;;;;15.44;79.85;99770.75;5084178;28;20236;-75
2022/07/11 00:03:49;;;;;;;3.63;0.60;;;;;;;15.37;81.20;99773.59;5094617;28;20640;-74
2022/07/11 00:06:15;;;;;;;2.20;0.70;;;;;;;15.30;83.29;99767.53;5086629;28;20224;-73
2022/07/11 00:08:42;;;;;;;3.50;0.73;;;;;;;15.23;86.39;99764.22;5090851;28;20227;-73
2022/07/11 00:11:09;;;;;;;1.27;0.57;;;;;;;15.24;84.37;99765.03;5088204;28;20317;-75
2022/07/11 00:13:35;;;;;;;1.40;0.70;;;;;;;15.22;83.25;99764.44;5083809;28;20233;-73
2022/07/11 00:16:02;;;;;;;2.23;0.80;;;;;;;15.23;81.82;99766.09;5078589;28;20319;-74
2022/07/11 00:18:34;;;;;;;1.03;0.70;;;;;;;15.27;80.81;99765.34;5084875;28;20891;-73
2022/07/11 00:21:01;;;;;;;1.53;0.63;;;;;;;15.28;80.09;99767.00;5086926;28;20255;-74
2022/07/11 00:23:27;;;;;;;1.53;0.60;;;;;;;15.29;81.40;99767.81;5077375;28;20247;-74
2022/07/11 00:25:54;;;;;;;1.53;0.60;;;;;;;15.49;79.27;99770.00;5090009;28;20248;-75
2022/07/11 00:28:20;;;;;;;0.73;0.70;;;;;;;15.40;79.73;99774.97;5088958;28;20239;-74
2022/07/11 00:30:47;;;;;;;0.93;0.60;;;;;;;15.35;79.23;99778.44;5081576;28;20308;-77
2022/07/11 00:33:14;;;;;;;1.30;0.53;;;;;;;15.33;80.03;99766.25;5079733;28;20609;-74
2022/07/11 00:35:41;;;;;;;1.37;0.80;;;;;;;15.42;79.52;99765.59;5075386;28;20244;-74
2022/07/11 00:38:07;;;;;;;0.73;0.50;;;;;;;15.43;78.87;99763.72;5076636;28;20780;-74
2022/07/11 00:40:34;;;;;;;1.33;0.73;;;;;;;15.37;80.03;99764.69;5077988;28;20343;-75
2022/07/11 00:43:03;;;;;;;1.20;0.77;;;;;;;15.42;79.96;99754.78;5077131;28;20316;-73
2022/07/11 00:45:29;;;;;;;0.60;0.57;;;;;;;15.35;80.49;99756.81;5075011;28;20228;-74
2022/07/11 00:47:56;;;;;;;2.40;0.70;;;;;;;15.33;81.19;99753.56;5078104;28;20264;-75
2022/07/11 00:50:24;;;;;;;0.63;0.63;;;;;;;15.50;78.79;99752.72;5068773;28;20220;-75
2022/07/11 00:52:52;;;;;;;1.20;0.60;;;;;;;15.42;79.65;99756.66;5065568;28;20221;-74
2022/07/11 00:55:19;;;;;;;2.10;0.60;;;;;;;15.33;81.34;99748.19;5079368;28;20240;-74
2022/07/11 00:57:46;;;;;;;1.13;0.53;;;;;;;15.54;77.56;99752.00;5081976;28;20348;-74
2022/07/11 01:00:13;;;;;;;0.97;0.40;;;;;;;15.46;79.47;99749.69;5093802;28;20244;-74
2022/07/11 01:02:40;;;;;;;2.90;0.70;;;;;;;15.47;78.77;99751.34;5081030;28;20248;-75
2022/07/11 01:05:07;;;;;;;0.73;0.60;;;;;;;15.44;79.05;99747.25;5086832;28;20315;-75
2022/07/11 01:07:33;;;;;;;2.63;0.60;;;;;;;15.59;76.84;99748.56;5085276;28;20310;-76
2022/07/11 01:10:00;;;;;;;2.10;0.80;;;;;;;15.51;77.80;99747.09;5093616;28;20311;-75
2022/07/11 01:12:27;;;;;;;0.93;0.60;;;;;;;15.42;78.42;99744.00;5081949;28;20252;-75
2022/07/11 01:14:54;;;;;;;1.00;0.53;;;;;;;15.44;77.95;99744.53;5095084;28;20304;-75
2022/07/11 01:17:21;;;;;;;1.03;0.60;;;;;;;15.45;78.97;99750.75;5084325;28;20315;-74
2022/07/11 01:19:47;;;;;;;0.60;0.50;;;;;;;15.54;77.59;99745.81;5093972;28;20319;-75
2022/07/11 01:22:14;;;;;;;1.97;0.60;;;;;;;15.48;78.40;99744.06;5062593;28;20267;-76
2022/07/11 01:24:42;;;;;;;0.80;0.50;;;;;;;15.53;76.73;99728.78;5080518;28;20274;-76
2022/07/11 01:27:09;;;;;;;0.60;0.40;;;;;;;15.55;78.52;99729.34;5083218;28;20243;-75
2022/07/11 01:29:35;;;;;;;3.53;0.70;;;;;;;15.48;78.45;99734.09;5079587;28;20334;-76
2022/07/11 01:32:02;;;;;;;1.80;0.63;;;;;;;15.55;76.61;99733.91;5085641;28;20308;-74
2022/07/11 01:34:29;;;;;;;1.00;0.70;;;;;;;15.43;78.31;99731.31;5087166;28;20315;-74
2022/07/11 01:36:56;;;;;;;1.10;0.70;;;;;;;15.42;79.23;99738.59;5091941;28;20647;-76
2022/07/11 01:39:22;;;;;;;1.80;0.70;;;;;;;15.39;79.51;99730.19;5080830;28;20317;-74
2022/07/11 01:41:49;;;;;;;2.07;0.70;;;;;;;15.42;78.48;99729.66;5086739;28;20308;-75
2022/07/11 01:44:16;;;;;;;1.00;0.70;;;;;;;15.33;80.63;99725.75;5085111;28;20229;-74
2022/07/11 01:46:42;;;;;;;0.93;0.60;;;;;;;15.36;78.90;99726.06;5085927;28;20664;-75
2022/07/11 01:49:09;;;;;;;0.70;0.60;;;;;;;15.35;79.45;99729.03;5089344;28;20319;-74
2022/07/11 01:51:36;;;;;;;1.10;0.67;;;;;;;15.34;79.86;99722.00;5085693;28;20257;-76
2022/07/11 01:54:02;;;;;;;0.80;0.70;;;;;;;15.33;79.64;99728.47;5090987;28;20780;-75
2022/07/11 01:56:32;;;;;;;2.00;0.70;;;;;;;15.33;80.90;99723.06;5093208;28;20220;-75
2022/07/11 01:58:59;;;;;;;1.70;0.70;;;;;;;15.24;81.72;99722.66;5091541;28;20232;-75
2022/07/11 02:01:26;;;;;;;0.70;0.50;;;;;;;15.16;83.22;99715.00;5095552;28;20314;-75
2022/07/11 02:03:55;;;;;;;0.90;0.60;;;;;;;15.23;83.22;99714.81;5087445;28;20260;-75
2022/07/11 02:06:21;;;;;;;1.00;0.50;;;;;;;15.17;83.77;99721.19;5092018;28;20688;-74
2022/07/11 02:08:48;;;;;;;1.37;0.60;;;;;;;15.08;85.29;99715.41;5093276;28;20759;-75
2022/07/11 02:11:15;;;;;;;1.47;0.60;;;;;;;15.11;85.66;99716.81;5099571;28;20255;-75
2022/07/11 02:13:41;;;;;;;1.17;0.70;;;;;;;15.04;86.83;99718.84;5084582;28;20327;-76
2022/07/11 02:16:08;;;;;;;1.10;0.63;;;;;;;14.98;89.28;99723.31;5082897;28;20270;-74
2022/07/11 02:18:35;;;;;;;1.70;0.60;;;;;;;14.97;89.57;99719.03;5088753;28;20300;-74
2022/07/11 02:21:02;;;;;;;1.47;0.60;;;;;;;15.02;89.23;99716.41;5088676;28;20314;-74
2022/07/11 02:23:29;;;;;;;0.83;0.50;;;;;;;14.95;89.70;99719.25;5086954;28;20220;-75
2022/07/11 02:25:55;;;;;;;0.87;0.57;;;;;;;14.90;92.49;99713.78;5085056;28;20885;-74
2022/07/11 02:28:22;;;;;;;2.50;0.60;;;;;;;14.94;91.55;99716.78;5092356;28;20303;-74
2022/07/11 02:30:49;;;;;;;1.67;0.50;;;;;;;14.87;92.12;99722.38;5083909;28;20230;-75
2022/07/11 02:33:15;;;;;;;1.23;0.60;;;;;;;14.81;93.16;99719.81;5091126;28;20702;-74
2022/07/11 02:35:44;;;;;;;1.10;0.60;;;;;;;14.78;94.41;99718.44;5084451;28;20247;-75
2022/07/11 02:38:10;;;;;;;1.87;0.50;;;;;;;14.73;95.89;99726.44;5081845;28;20668;-75
2022/07/11 02:40:37;;;;;;;1.60;0.60;;;;;;;14.72;96.64;99722.09;5083732;28;20310;-74
2022/07/11 02:43:04;;;;;;;1.03;0.60;;;;;;;14.69;98.79;99725.31;5085585;28;20320;-75
2022/07/11 02:45:31;;;;;;;1.07;0.60;;;;;;;14.71;100.00;99725.88;5081333;28;21104;-75
2022/07/11 02:47:58;;;;;;;0.83;0.43;;;;;;;14.73;100.00;99731.03;5084644;28;20268;-75
2022/07/11 02:50:24;;;;;;;1.73;0.67;;;;;;;14.69;100.00;99728.00;5085618;28;20254;-75
2022/07/11 02:52:51;;;;;;;1.20;0.70;;;;;;;14.66;100.00;99725.78;5087451;28;20830;-75
2022/07/11 02:55:18;;;;;;;2.77;0.60;;;;;;;14.64;100.00;99722.53;5091424;28;20255;-75
2022/07/11 02:57:44;;;;;;;1.33;0.60;;;;;;;14.66;100.00;99731.16;5076891;28;20314;-75
2022/07/11 03:00:15;;;;;;;0.60;0.50;;;;;;;14.67;100.00;99734.69;5093694;28;20249;-75
2022/07/11 03:02:42;;;;;;;2.60;0.70;;;;;;;14.66;100.00;99739.25;5089476;28;20254;-75
2022/07/11 03:05:09;;;;;;;0.60;0.60;;;;;;;14.60;100.00;99729.47;5090908;28;20751;-74
2022/07/11 03:07:36;;;;;;;1.67;0.60;;;;;;;14.65;100.00;99734.91;5090391;28;20339;-76
2022/07/11 03:10:03;;;;;;;1.23;0.80;;;;;;;14.69;100.00;99746.88;5074545;28;20316;-75
2022/07/11 03:12:30;;;;;;;1.70;0.90;;;;;;;14.67;100.00;99748.16;5089749;28;20297;-74
2022/07/11 03:14:57;;;;;;;2.00;0.80;;;;;;;14.75;100.00;99753.97;5093496;28;20255;-74
2022/07/11 03:17:23;;;;;;;1.50;0.73;;;;;;;14.72;100.00;99754.47;5092270;28;20331;-74
2022/07/11 03:19:50;;;;;;;1.03;0.93;;;;;;;14.66;100.00;99768.09;5090350;28;20309;-74
2022/07/11 03:22:17;;;;;;;1.37;0.80;;;;;;;14.30;100.00;99753.94;5090775;28;20315;-75
2022/07/11 03:24:44;;;;;;;1.70;0.83;;;;;;;14.19;100.00;99751.28;5086065;28;20237;-75
2022/07/11 03:27:10;;;;;;;2.37;0.87;;;;;;;14.26;100.00;99755.50;5089457;28;20767;-75
2022/07/11 03:29:40;;;;;;;1.70;0.90;;;;;;;14.18;100.00;99753.19;5093194;28;20224;-75
2022/07/11 03:32:08;;;;;;;0.90;0.90;;;;;;;13.91;100.00;99758.28;5085248;28;20227;-75
2022/07/11 03:34:35;;;;;;;1.97;0.90;;;;;;;13.89;100.00;99762.28;5066597;28;20296;-74
2022/07/11 03:37:02;;;;;;;2.67;0.70;;;;;;;13.78;100.00;99755.84;5087770;28;20277;-74
2022/07/11 03:39:29;;;;;;;2.20;0.73;;;;;;;13.80;100.00;99750.25;5091814;28;20325;-75
2022/07/11 03:41:56;;;;;;;1.13;0.90;;;;;;;13.89;100.00;99757.72;5087377;28;20314;-76
2022/07/11 03:44:24;;;;;;;1.07;0.70;;;;;;;13.79;100.00;99754.81;5094258;28;20312;-74
2022/07/11 03:46:50;;;;;;;0.90;0.70;;;;;;;13.75;100.00;99755.50;5089845;28;20230;-74
2022/07/11 03:49:17;;;;;;;3.40;0.80;;;;;;;13.64;100.00;99749.09;5091211;28;20667;-75
2022/07/11 03:51:44;;;;;;;1.47;0.80;;;;;;;13.83;100.00;99758.66;5090868;28;20353;-74
2022/07/11 03:54:10;;;;;;;1.40;0.90;;;;;;;13.98;100.00;99756.28;5089710;28;20276;-74
2022/07/11 03:56:37;;;;;;;0.87;0.80;;;;;;;13.91;100.00;99755.59;5089821;28;21005;-75
2022/07/11 03:59:04;;;;;;;1.83;1.00;;;;;;;13.93;100.00;99760.75;5093360;28;20323;-74
2022/07/11 04:01:30;;;;;;;1.73;1.00;;;;;;;13.83;100.00;99764.03;5099020;28;20278;-77
2022/07/11 04:03:57;;;;;;;1.77;0.80;;;;;;;13.84;100.00;99760.31;5088096;28;20241;-76
2022/07/11 04:06:24;;;;;;;1.27;1.00;;;;;;;13.90;100.00;99766.63;5089471;28;20329;-75
2022/07/11 04:08:50;;;;;;;1.00;0.90;;;;;;;13.90;100.00;99763.91;5097323;28;20257;-74
2022/07/11 04:11:17;;;;;;;2.00;0.97;;;;;;;13.94;100.00;99763.22;5088660;28;20257;-75
2022/07/11 04:13:43;;;;;;;1.63;1.13;;;;;;;14.04;100.00;99765.28;5091970;28;20234;-75
2022/07/11 04:16:11;;;;;;;2.70;0.90;;;;;;;14.10;100.00;99758.94;5092435;28;20257;-76
2022/07/11 04:18:38;;;;;;;1.57;0.90;;;;;;;14.14;100.00;99759.28;5089710;28;20246;-75
2022/07/11 04:21:05;;;;;;;1.40;0.97;;;;;;;14.20;100.00;99755.63;5086519;28;20316;-74
2022/07/11 04:23:35;;;;;;;1.87;0.87;;;;;;;14.32;100.00;99754.53;5088230;28;20277;-74
2022/07/11 04:26:02;;;;;;;1.23;1.07;;;;;;;14.47;100.00;99752.13;5096030;28;20593;-73
2022/07/11 04:28:29;;;;;;;1.93;0.83;;;;;;;14.63;100.00;99761.31;5099069;28;20233;-76
2022/07/11 04:30:56;;;;;;;1.60;1.00;;;;;;;14.75;100.00;99753.97;5089605;28;20255;-75
2022/07/11 04:33:22;;;;;;;1.23;0.90;;;;;;;14.88;100.00;99760.97;5092176;28;20251;-75
2022/07/11 04:35:49;;;;;;;2.47;1.10;;;;;;;14.97;100.00;99754.91;5092749;28;20259;-75
2022/07/11 04:38:16;;;;;;;1.70;1.00;;;;;;;15.04;100.00;99751.22;5092785;28;20259;-75
2022/07/11 04:40:43;;;;;;;2.80;0.90;;;;;;;15.17;100.00;99754.41;5087573;28;20247;-74
2022/07/11 04:43:10;;;;;;;0.93;0.80;;;;;;;15.29;100.00;99759.72;5094316;28;20317;-77
2022/07/11 04:45:36;;;;;;;2.87;0.90;;;;;;;15.33;100.00;99755.44;5087499;28;20600;-75
2022/07/11 04:48:03;;;;;;;1.40;0.90;;;;;;;15.46;100.00;99755.09;5083934;28;20224;-75
2022/07/11 04:50:30;;;;;;;0.97;0.90;;;;;;;15.44;100.00;99752.63;5067979;28;20315;-74
2022/07/11 04:52:57;;;;;;;3.13;0.87;;;;;;;15.64;100.00;99749.44;5069204;28;20269;-76
2022/07/11 04:55:24;;;;;;;5.00;0.93;;;;;;;15.97;100.00;99761.22;5068103;28;20251;-74
2022/07/11 04:57:51;;;;;;;1.03;0.80;;;;;;;16.11;100.00;99755.19;5070349;28;20342;-74
2022/07/11 05:00:17;;;;;;;1.10;0.70;;;;;;;16.25;100.00;99763.72;5065062;28;20298;-76
2022/07/11 05:02:44;;;;;;;1.33;0.90;;;;;;;16.26;100.00;99760.75;5082331;28;20252;-75
2022/07/11 05:05:11;;;;;;;1.20;0.70;;;;;;;16.46;100.00;99762.06;5071789;28;20704;-75
2022/07/11 05:07:38;;;;;;;2.33;0.70;;;;;;;16.58;100.00;99760.03;5068187;28;20328;-74
2022/07/11 05:10:05;;;;;;;2.27;0.70;;;;;;;16.70;100.00;99756.09;5078024;28;20295;-75
2022/07/11 05:12:32;;;;;;;1.97;0.60;;;;;;;16.82;98.82;99757.84;5070311;28;20237;-75
2022/07/11 05:14:58;;;;;;;2.80;0.50;;;;;;;17.00;97.42;99763.69;5069135;28;20232;-75
2022/07/11 05:17:26;;;;;;;0.80;0.53;;;;;;;17.21;91.08;99756.56;5068873;28;20772;-74
2022/07/11 05:19:52;;;;;;;2.07;0.70;;;;;;;17.31;85.69;99763.94;5072750;28;20332;-75
2022/07/11 05:22:19;;;;;;;1.17;0.67;;;;;;;17.54;84.41;99764.34;5076431;28;20248;-75
2022/07/11 05:24:46;;;;;;;1.00;0.60;;;;;;;17.67;83.76;99767.72;5083410;28;20247;-74
2022/07/11 05:27:12;;;;;;;1.13;0.50;;;;;;;17.68;81.20;99770.16;5070743;28;20266;-78
2022/07/11 05:29:39;;;;;;;1.77;0.60;;;;;;;17.67;78.81;99765.00;5070225;28;20307;-75
2022/07/11 05:32:06;;;;;;;0.87;0.67;;;;;;;17.77;78.31;99771.28;5079221;28;20334;-74
2022/07/11 05:34:33;;;;;;;1.33;0.87;;;;;;;17.85;78.75;99770.78;5072530;28;20233;-75
2022/07/11 05:37:00;;;;;;;3.13;0.90;;;;;;;17.98;77.67;99772.19;5079401;28;20278;-75
2022/07/11 05:39:26;;;;;;;1.10;0.67;;;;;;;18.09;76.04;99767.63;5077593;28;20332;-74
2022/07/11 05:41:53;;;;;;;2.23;0.80;;;;;;;18.21;73.22;99765.50;5075190;28;20293;-76
2022/07/11 05:44:20;;;;;;;1.30;0.70;;;;;;;18.57;72.45;99772.69;5065958;28;20256;-76
2022/07/11 05:46:47;;;;;;;1.83;0.70;;;;;;;18.85;70.06;99779.50;5067640;28;20764;-75
2022/07/11 05:49:13;;;;;;;2.33;0.70;;;;;;;19.23;66.60;99778.16;5074107;28;20228;-75
2022/07/11 05:51:41;;;;;;;3.00;0.80;;;;;;;19.58;62.17;99770.00;5090666;28;20315;-75
2022/07/11 05:54:08;;;;;;;1.60;0.70;;;;;;;19.77;57.42;99779.22;5085563;28;20228;-74
2022/07/11 05:56:34;;;;;;;1.97;0.70;;;;;;;20.07;59.17;99780.19;5083965;28;20240;-75
2022/07/11 05:59:01;;;;;;;3.13;0.60;;;;;;;20.46;55.66;99778.41;5086031;28;20231;-75
2022/07/11 06:01:28;;;;;;;2.00;0.80;;;;;;;20.51;53.83;99781.09;5090667;28;20654;-74
2022/07/11 06:04:02;;;;;;;2.17;0.70;;;;;;;20.26;54.00;99777.66;5082212;28;20248;-76
2022/07/11 06:06:29;;;;;;;0.93;0.50;;;;;;;20.29;53.75;99783.38;5093666;28;20213;-74
2022/07/11 06:08:56;;;;;;;1.53;0.70;;;;;;;20.08;55.81;99779.91;5085353;28;20319;-75
2022/07/11 06:11:22;;;;;;;1.10;0.60;;;;;;;19.99;55.53;99791.63;5086084;28;20317;-75
2022/07/11 06:13:49;;;;;;;1.67;0.50;;;;;;;19.48;58.06;99778.19;5082908;28;20267;-75
2022/07/11 06:16:16;;;;;;;0.93;0.60;;;;;;;19.57;58.46;99784.69;5085319;28;20312;-75
2022/07/11 06:18:43;;;;;;;1.07;0.60;;;;;;;19.49;58.89;99781.72;5089114;28;20204;-74
2022/07/11 06:21:11;;;;;;;1.73;0.70;;;;;;;19.27;58.81;99788.22;5087704;28;20277;-75
2022/07/11 06:23:37;;;;;;;0.83;0.57;;;;;;;19.36;58.72;99785.78;5085328;28;20216;-75
2022/07/11 06:26:04;;;;;;;1.63;0.97;;;;;;;19.23;59.52;99789.84;5082666;28;20220;-75
2022/07/11 06:28:31;;;;;;;0.70;0.60;;;;;;;19.19;60.41;99786.03;5090404;28;20224;-75
2022/07/11 06:30:58;;;;;;;0.97;0.70;;;;;;;19.26;59.85;99783.06;5081265;28;20307;-74
2022/07/11 06:33:25;;;;;;;1.47;0.63;;;;;;;19.13;60.63;99778.19;5083562;28;20220;-74
2022/07/11 06:35:52;;;;;;;1.27;0.67;;;;;;;19.35;58.36;99776.81;5087490;28;20318;-75
2022/07/11 06:38:19;;;;;;;0.80;0.50;;;;;;;19.41;59.38;99785.75;5085050;28;20316;-75
2022/07/11 06:40:46;;;;;;;1.20;0.67;;;;;;;19.36;59.86;99789.28;5091123;28;20233;-75
2022/07/11 06:43:13;;;;;;;2.03;0.60;;;;;;;19.41;58.87;99777.59;5084115;28;20291;-74
2022/07/11 06:45:40;;;;;;;2.17;0.80;;;;;;;19.42;58.43;99779.22;5087397;28;20312;-75
2022/07/11 06:48:06;;;;;;;0.70;0.60;;;;;;;19.21;60.68;99793.94;5084885;28;20243;-75
2022/07/11 06:50:34;;;;;;;0.90;0.70;;;;;;;19.49;58.86;99785.25;5093227;28;20220;-75
2022/07/11 06:53:00;;;;;;;2.00;0.90;;;;;;;19.43;60.19;99789.03;5080133;28;20238;-75
2022/07/11 06:55:27;;;;;;;0.53;0.53;;;;;;;19.22;59.28;99793.63;5085349;28;20309;-75
2022/07/11 06:57:53;;;;;;;1.23;0.60;;;;;;;19.24;60.43;99794.19;5087911;28;20229;-75
2022/07/11 07:00:40;;;;;;;2.10;0.70;;;;;;;19.26;60.21;99800.19;5088655;28;20227;-76
2022/07/11 07:03:08;;;;;;;1.20;0.63;;;;;;;19.42;57.95;99794.72;5082513;28;20234;-75
2022/07/11 07:05:45;;;;;;;1.97;0.70;;;;;;;19.59;58.47;99795.28;5086728;28;20227;-76
2022/07/11 07:08:13;;;;;;;0.97;0.60;;;;;;;19.51;57.08;99801.25;5085109;28;20591;-75
2022/07/11 07:10:39;;;;;;;2.10;0.67;;;;;;;19.73;57.59;99805.31;5086347;28;20283;-75
2022/07/11 07:13:06;;;;;;;1.00;0.70;;;;;;;20.17;56.00;99800.00;5084025;28;20226;-76
2022/07/11 07:15:33;;;;;;;1.23;0.67;;;;;;;20.22;55.82;99799.16;5084049;28;20308;-74
2022/07/11 07:17:59;;;;;;;0.90;0.60;;;;;;;20.55;55.17;99801.22;5082946;28;20318;-75
2022/07/11 07:20:29;;;;;;;2.30;0.70;;;;;;;20.94;51.97;99797.72;5088006;28;20238;-76
2022/07/11 07:22:56;;;;;;;2.03;0.70;;;;;;;20.65;53.02;99800.34;5080896;28;20225;-75
2022/07/11 07:25:23;;;;;;;1.43;0.77;;;;;;;21.07;51.74;99795.16;5089937;28;20315;-74
2022/07/11 07:27:50;;;;;;;2.07;1.00;;;;;;;21.36;50.35;99802.59;5085055;28;20223;-76
2022/07/11 07:30:17;;;;;;;2.10;0.67;;;;;;;21.57;51.03;99795.00;5071332;28;20305;-75
2022/07/11 07:32:44;;;;;;;1.10;0.60;;;;;;;21.89;49.66;99785.13;5086099;28;20640;-74
2022/07/11 07:35:10;;;;;;;1.73;0.60;;;;;;;22.02;48.83;99788.31;5087094;28;20240;-76
2022/07/11 07:37:37;;;;;;;1.17;0.70;;;;;;;21.77;48.48;99792.09;5091559;28;20334;-74
2022/07/11 07:40:04;;;;;;;1.77;0.70;;;;;;;21.29;50.81;99796.63;5087397;28;20852;-75
2022/07/11 07:42:31;;;;;;;1.63;0.90;;;;;;;21.20;50.82;99796.44;5090635;28;20288;-75
2022/07/11 07:44:58;;;;;;;2.20;0.90;;;;;;;21.15;51.96;99798.38;5091057;28;20752;-74
2022/07/11 07:47:24;;;;;;;3.13;0.83;;;;;;;20.63;53.08;99795.16;5089598;28;20656;-77
2022/07/11 07:49:51;;;;;;;1.83;0.80;;;;;;;20.29;55.06;99802.41;5090093;28;20228;-74
2022/07/11 07:52:18;;;;;;;1.97;0.70;;;;;;;20.40;53.38;99793.13;5086128;28;20249;-76
2022/07/11 07:54:44;;;;;;;1.80;0.73;;;;;;;20.60;52.90;99794.94;5090572;28;20234;-75
2022/07/11 07:57:11;;;;;;;8.17;1.10;;;;;;;21.04;50.75;99792.19;5086128;28;20307;-77
2022/07/11 07:59:38;;;;;;;1.13;0.60;;;;;;;21.74;49.56;99792.69;5086938;28;20269;-74
2022/07/11 08:02:04;;;;;;;3.20;1.10;;;;;;;21.44;48.92;99783.69;5087293;28;20288;-74
2022/07/11 08:04:31;;;;;;;3.27;0.90;;;;;;;21.54;49.59;99785.50;5085764;28;20729;-75
2022/07/11 08:06:59;;;;;;;2.77;1.43;;;;;;;21.46;47.88;99788.88;5093607;28;20217;-74
2022/07/11 08:09:26;;;;;;;1.77;0.80;;;;;;;21.13;49.22;99789.66;5084027;28;20231;-75
2022/07/11 08:11:53;;;;;;;2.53;0.90;;;;;;;20.56;49.79;99785.69;5088716;28;20231;-75
2022/07/11 08:14:20;;;;;;;2.13;0.70;;;;;;;20.38;51.08;99794.50;5065264;28;20261;-76
2022/07/11 08:16:47;;;;;;;2.87;0.77;;;;;;;19.96;52.25;99789.50;5092572;28;20253;-76
2022/07/11 08:19:15;;;;;;;1.73;1.00;;;;;;;20.07;51.13;99801.94;5088833;28;20580;-75
2022/07/11 08:21:41;;;;;;;1.17;0.70;;;;;;;19.99;53.01;99795.19;5065191;28;20231;-75
2022/07/11 08:24:08;;;;;;;1.77;0.63;;;;;;;19.74;54.44;99797.97;5087026;28;20316;-75
2022/07/11 08:26:35;;;;;;;1.70;0.80;;;;;;;19.92;54.38;99796.56;5086157;28;20640;-76
2022/07/11 08:29:03;;;;;;;1.17;0.73;;;;;;;19.90;53.98;99796.84;5071058;28;20313;-74
2022/07/11 08:31:30;;;;;;;2.70;1.00;;;;;;;20.20;53.51;99799.44;5069499;28;20232;-76
2022/07/11 08:33:58;;;;;;;2.93;0.70;;;;;;;20.57;52.26;99795.50;5086326;28;20226;-75
2022/07/11 08:36:27;;;;;;;3.07;0.90;;;;;;;20.68;50.55;99797.06;5088128;28;20226;-74
2022/07/11 08:38:54;;;;;;;1.30;0.90;;;;;;;20.82;50.35;99794.50;5088721;28;20222;-75
2022/07/11 08:41:21;;;;;;;1.40;0.70;;;;;;;20.94;49.48;99800.44;5086178;28;20232;-75
2022/07/11 08:43:48;;;;;;;1.10;0.80;;;;;;;21.24;49.93;99799.41;5082864;28;20250;-75
2022/07/11 08:46:15;;;;;;;2.40;1.00;;;;;;;21.52;48.78;99798.59;5089132;28;20680;-76
2022/07/11 08:48:42;;;;;;;2.50;0.80;;;;;;;21.68;49.28;99796.53;5076369;28;20262;-78
2022/07/11 08:51:09;;;;;;;2.97;0.70;;;;;;;21.76;49.03;99788.53;5067695;28;20253;-75
2022/07/11 08:53:42;;;;;;;2.53;0.90;;;;;;;21.78;48.96;99783.63;5080067;28;20227;-76
2022/07/11 08:56:10;;;;;;;1.83;0.83;;;;;;;22.13;48.63;99789.78;5063407;28;20240;-75
2022/07/11 08:58:37;;;;;;;1.63;0.80;;;;;;;22.53;47.81;99786.53;5083797;28;20248;-75
2022/07/11 09:01:05;;;;;;;1.33;0.90;;;;;;;22.85;45.52;99790.47;5084014;28;20298;-75
2022/07/11 09:03:33;;;;;;;1.83;0.80;;;;;;;22.39;45.89;99789.19;5082392;28;20217;-77
2022/07/11 09:06:01;;;;;;;2.80;0.80;;;;;;;22.28;46.10;99787.69;5082688;28;20247;-74
2022/07/11 09:08:29;;;;;;;2.10;0.80;;;;;;;22.74;45.52;99789.81;5083516;28;20300;-74
2022/07/11 09:10:56;;;;;;;0.93;0.70;;;;;;;22.83;45.20;99786.13;5083246;28;20234;-76
2022/07/11 09:13:27;;;;;;;1.50;0.93;;;;;;;22.38;46.50;99782.09;5089040;28;20277;-76
2022/07/11 09:16:01;;;;;;;1.10;0.60;;;;;;;22.10;47.35;99783.00;5070834;28;20272;-77
2022/07/11 09:18:35;;;;;;;1.43;0.90;;;;;;;21.49;50.16;99788.28;5084239;28;20247;-74
2022/07/11 09:26:43;;;;;;;1.73;0.80;;;;;;;21.40;51.38;99790.81;5071568;28;20225;-76
2022/07/11 09:29:11;;;;;;;2.33;0.77;;;;;;;21.72;50.77;99773.88;5088350;28;20231;-75
2022/07/11 09:31:40;;;;;;;0.80;0.70;;;;;;;22.28;50.22;99773.22;5085939;28;20719;-75
2022/07/11 09:34:09;;;;;;;0.87;0.70;;;;;;;22.39;47.02;99767.34;5085331;28;20322;-76
2022/07/11 09:36:44;;;;;;;1.80;1.03;;;;;;;22.45;46.86;99770.00;5088839;28;20228;-77
2022/07/11 09:39:19;;;;;;;1.97;0.90;;;;;;;22.12;48.22;99753.50;5090053;28;20586;-75
2022/07/11 09:41:47;;;;;;;1.43;0.80;;;;;;;22.22;49.29;99771.66;5087553;28;20223;-76
2022/07/11 09:44:24;;;;;;;1.37;0.80;;;;;;;22.36;47.96;99758.91;5087231;28;20228;-75
2022/07/11 09:46:52;;;;;;;1.57;0.80;;;;;;;22.60;47.86;99758.84;5071783;28;20224;-75
2022/07/11 09:49:34;;;;;;;1.37;0.97;;;;;;;22.68;46.56;99761.72;5085692;28;20231;-74
2022/07/11 09:52:06;;;;;;;1.20;0.80;;;;;;;23.23;45.10;99759.25;5091416;28;20231;-74
2022/07/11 09:54:33;;;;;;;1.70;0.90;;;;;;;23.42;44.60;99759.22;5093588;28;20254;-75
2022/07/11 09:57:09;;;;;;;1.80;0.90;;;;;;;24.29;41.74;99764.66;5070671;28;20258;-76
2022/07/11 09:59:37;;;;;;;2.90;0.80;;;;;;;24.62;40.60;99746.13;5091214;28;20223;-76
2022/07/11 10:02:05;;;;;;;2.63;0.70;;;;;;;24.69;40.12;99741.81;5075671;28;20216;-77
2022/07/11 10:04:32;;;;;;;1.88;0.80;;;;;;;24.67;39.67;99743.25;5075386;28;20831;-77
2022/07/11 10:06:58;;;;;;;1.65;0.88;;;;;;;24.69;38.43;99744.56;5083047;28;20294;-73
2022/07/11 10:09:26;;;;;;;1.33;0.80;;;;;;;24.60;40.10;99749.16;5094725;28;20228;-78
2022/07/11 10:11:52;;;;;;;2.15;0.98;;;;;;;24.30;40.48;99742.44;5064864;28;20314;-76
2022/07/11 10:14:19;;;;;;;1.05;0.77;;;;;;;23.90;41.70;99744.06;5066719;28;20233;-76
2022/07/11 10:17:32;;;;;;;1.38;0.80;;;;;;;23.16;40.28;99747.88;5089239;28;20708;-75
2022/07/11 10:20:26;;;;;;;1.20;0.93;;;;;;;22.59;41.85;99740.84;5062644;28;20249;-76
2022/07/11 10:23:13;;;;;;;0.70;0.60;;;;;;;22.01;44.43;99745.75;5092465;28;20749;-75
2022/07/11 10:25:45;;;;;;;1.13;0.70;;;;;;;21.46;45.97;99742.53;5073735;28;20688;-76
2022/07/11 10:28:27;;;;;;;1.07;0.90;;;;;;;21.47;47.37;99747.66;5077213;28;20251;-75
2022/07/11 10:30:55;;;;;;;2.63;1.00;;;;;;;21.69;45.48;99741.75;5086789;28;20219;-76
2022/07/11 10:33:22;;;;;;;2.77;0.93;;;;;;;21.60;46.22;99746.19;5091440;28;20247;-75
2022/07/11 10:35:50;;;;;;;1.77;0.80;;;;;;;21.48;47.43;99749.31;5096232;28;20931;-77
2022/07/11 10:38:17;;;;;;;1.80;0.80;;;;;;;21.23;49.32;99746.03;5091032;28;20248;-75
2022/07/11 10:40:58;;;;;;;1.47;0.80;;;;;;;21.40;51.35;99746.41;5071726;28;20218;-75
2022/07/11 10:43:38;;;;;;;2.43;0.90;;;;;;;21.59;51.82;99746.47;5068932;28;20225;-75
2022/07/11 10:46:11;;;;;;;1.47;0.73;;;;;;;21.90;49.99;99743.13;5086053;28;20344;-75
2022/07/11 10:49:03;;;;;;;2.20;0.97;;;;;;;22.26;49.64;99748.13;5079097;28;20274;-75
2022/07/11 10:51:41;;;;;;;1.40;0.93;;;;;;;22.53;48.36;99752.97;5087965;28;20229;-75
2022/07/11 10:54:51;;;;;;;2.33;1.00;;;;;;;22.76;48.02;99755.66;5080494;28;20312;-74
2022/07/11 10:57:21;;;;;;;1.95;0.80;;;;;;;22.36;49.64;99750.72;5067919;28;20710;-75
2022/07/11 11:00:04;;;;;;;4.90;1.17;;;;;;;22.07;51.44;99747.31;5088304;28;20711;-76
2022/07/11 11:02:32;;;;;;;1.27;0.90;;;;;;;22.19;51.54;99744.97;5089567;28;20266;-75
2022/07/11 11:05:00;;;;;;;1.40;0.87;;;;;;;22.31;52.41;99754.34;5069647;28;20276;-74
2022/07/11 11:07:27;;;;;;;2.47;0.83;;;;;;;22.49;50.37;99752.72;5086610;28;20230;-75
2022/07/11 11:09:54;;;;;;;3.00;0.97;;;;;;;22.69;50.29;99752.44;5085960;28;20212;-75
2022/07/11 11:12:59;;;;;;;1.97;0.90;;;;;;;23.05;50.11;99749.19;5090521;28;20680;-77
2022/07/11 11:15:44;;;;;;;3.35;1.02;;;;;;;23.38;48.12;99747.22;5085631;28;20222;-76
2022/07/11 11:18:24;;;;;;;1.77;0.87;;;;;;;24.02;45.90;99746.31;5087031;28;20256;-76
2022/07/11 11:21:00;;;;;;;1.17;0.80;;;;;;;23.70;46.29;99747.22;5084330;28;20285;-75
2022/07/11 11:23:35;;;;;;;2.92;0.82;;;;;;;23.62;45.30;99743.25;5094308;28;20715;-75
2022/07/11 11:26:05;;;;;;;2.72;0.75;;;;;;;23.41;45.92;99741.19;5074594;28;20230;-79
2022/07/11 11:28:32;;;;;;;1.75;0.80;;;;;;;23.29;47.99;99747.13;5069043;28;20319;-79
2022/07/11 11:31:01;;;;;;;1.75;0.70;;;;;;;22.83;48.62;99736.13;5088415;28;20251;-75
2022/07/11 11:33:30;;;;;;;1.75;0.93;;;;;;;22.65;49.38;99747.88;5090739;28;20224;-75
2022/07/11 11:36:09;;;;;;;1.55;0.75;;;;;;;22.08;52.15;99735.28;5090966;28;20223;-75
2022/07/11 11:38:38;;;;;;;1.40;0.90;;;;;;;21.75;53.26;99743.28;5073466;28;20220;-76
2022/07/11 11:41:05;;;;;;;1.13;0.80;;;;;;;21.74;54.68;99746.31;5083485;28;20751;-76
2022/07/11 11:43:32;;;;;;;2.75;0.73;;;;;;;21.82;54.46;99749.22;5065059;28;20294;-76